sensor_id;sensor_type;location;lat;lon;timestamp;P1;durP1;ratioP1;P2;durP2;ratioP2
76729;SDS011;65653;53.106;18.046;2023-11-19T00:00:34;43.80;;;15.50;;
76729;SDS011;65653;53.106;18.046;2023-11-19T00:03:20;55.60;;;18.10;;
76729;SDS011;65653;53.106;18.046;2023-11-19T00:05:46;51.20;;;17.80;;
76729;SDS011;65653;53.106;18.046;2023-11-19T00:08:12;57.70;;;19.00;;
76729;SDS011;65653;53.106;18.046;2023-11-19T00:10:38;44.10;;;15.70;;
76729;SDS011;65653;53.106;18.046;2023-11-19T00:13:04;43.60;;;14.20;;
76729;SDS011;65653;53.106;18.046;2023-11-19T00:15:31;39.10;;;13.70;;
76729;SDS011;65653;53.106;18.046;2023-11-19T00:17:56;46.10;;;15.10;;
76729;SDS011;65653;53.106;18.046;2023-11-19T00:20:23;39.50;;;14.40;;
76729;SDS011;65653;53.106;18.046;2023-11-19T00:22:49;46.00;;;15.70;;
76729;SDS011;65653;53.106;18.046;2023-11-19T00:25:18;52.70;;;16.00;;
76729;SDS011;65653;53.106;18.046;2023-11-19T00:27:45;49.30;;;16.90;;
76729;SDS011;65653;53.106;18.046;2023-11-19T00:30:11;44.00;;;17.20;;
76729;SDS011;65653;53.106;18.046;2023-11-19T00:32:39;51.20;;;20.40;;
76729;SDS011;65653;53.106;18.046;2023-11-19T00:35:06;49.80;;;19.20;;
76729;SDS011;65653;53.106;18.046;2023-11-19T00:37:39;49.00;;;17.50;;
76729;SDS011;65653;53.106;18.046;2023-11-19T00:40:05;50.60;;;19.10;;
76729;SDS011;65653;53.106;18.046;2023-11-19T00:42:32;40.80;;;15.10;;
76729;SDS011;65653;53.106;18.046;2023-11-19T00:44:58;51.20;;;19.70;;
76729;SDS011;65653;53.106;18.046;2023-11-19T00:47:24;74.70;;;25.00;;
76729;SDS011;65653;53.106;18.046;2023-11-19T00:49:49;87.20;;;26.70;;
76729;SDS011;65653;53.106;18.046;2023-11-19T00:52:18;76.80;;;24.30;;
76729;SDS011;65653;53.106;18.046;2023-11-19T00:54:44;50.30;;;17.30;;
76729;SDS011;65653;53.106;18.046;2023-11-19T00:57:10;47.70;;;16.30;;
76729;SDS011;65653;53.106;18.046;2023-11-19T00:59:36;58.10;;;19.70;;
76729;SDS011;65653;53.106;18.046;2023-11-19T01:02:03;51.50;;;17.40;;
76729;SDS011;65653;53.106;18.046;2023-11-19T01:04:33;68.20;;;21.50;;
76729;SDS011;65653;53.106;18.046;2023-11-19T01:07:04;45.40;;;17.30;;
76729;SDS011;65653;53.106;18.046;2023-11-19T01:09:30;53.10;;;18.00;;
76729;SDS011;65653;53.106;18.046;2023-11-19T01:11:58;69.80;;;23.50;;
76729;SDS011;65653;53.106;18.046;2023-11-19T01:14:26;59.50;;;19.40;;
76729;SDS011;65653;53.106;18.046;2023-11-19T01:16:52;56.80;;;19.70;;
76729;SDS011;65653;53.106;18.046;2023-11-19T01:19:20;53.80;;;18.50;;
76729;SDS011;65653;53.106;18.046;2023-11-19T01:21:48;38.70;;;14.90;;
76729;SDS011;65653;53.106;18.046;2023-11-19T01:24:17;53.70;;;17.50;;
76729;SDS011;65653;53.106;18.046;2023-11-19T01:26:43;65.10;;;19.70;;
76729;SDS011;65653;53.106;18.046;2023-11-19T01:29:13;61.40;;;19.20;;
76729;SDS011;65653;53.106;18.046;2023-11-19T01:31:40;65.30;;;20.20;;
76729;SDS011;65653;53.106;18.046;2023-11-19T01:36:39;42.00;;;13.90;;
76729;SDS011;65653;53.106;18.046;2023-11-19T01:39:05;32.50;;;10.50;;
76729;SDS011;65653;53.106;18.046;2023-11-19T01:41:37;42.40;;;14.50;;
76729;SDS011;65653;53.106;18.046;2023-11-19T01:44:05;37.90;;;14.60;;
76729;SDS011;65653;53.106;18.046;2023-11-19T01:46:31;38.00;;;13.90;;
76729;SDS011;65653;53.106;18.046;2023-11-19T01:48:58;44.60;;;15.10;;
76729;SDS011;65653;53.106;18.046;2023-11-19T01:51:25;37.80;;;13.80;;
76729;SDS011;65653;53.106;18.046;2023-11-19T01:53:52;35.70;;;12.90;;
76729;SDS011;65653;53.106;18.046;2023-11-19T01:56:18;53.80;;;16.90;;
76729;SDS011;65653;53.106;18.046;2023-11-19T01:58:45;45.30;;;14.30;;
76729;SDS011;65653;53.106;18.046;2023-11-19T02:01:12;38.40;;;14.20;;
76729;SDS011;65653;53.106;18.046;2023-11-19T02:03:38;40.00;;;14.80;;
76729;SDS011;65653;53.106;18.046;2023-11-19T02:06:05;43.60;;;14.20;;
76729;SDS011;65653;53.106;18.046;2023-11-19T02:08:31;53.90;;;16.70;;
76729;SDS011;65653;53.106;18.046;2023-11-19T02:11:00;34.60;;;12.70;;
76729;SDS011;65653;53.106;18.046;2023-11-19T02:13:26;38.80;;;12.50;;
76729;SDS011;65653;53.106;18.046;2023-11-19T02:15:54;41.10;;;14.80;;
76729;SDS011;65653;53.106;18.046;2023-11-19T02:18:21;33.80;;;13.40;;
76729;SDS011;65653;53.106;18.046;2023-11-19T02:20:49;38.10;;;13.30;;
76729;SDS011;65653;53.106;18.046;2023-11-19T02:23:16;41.10;;;14.40;;
76729;SDS011;65653;53.106;18.046;2023-11-19T02:25:43;32.70;;;12.50;;
76729;SDS011;65653;53.106;18.046;2023-11-19T02:30:45;22.50;;;10.00;;
76729;SDS011;65653;53.106;18.046;2023-11-19T02:33:11;35.40;;;13.70;;
76729;SDS011;65653;53.106;18.046;2023-11-19T02:35:38;34.70;;;13.00;;
76729;SDS011;65653;53.106;18.046;2023-11-19T02:38:06;26.40;;;10.00;;
76729;SDS011;65653;53.106;18.046;2023-11-19T02:40:32;38.50;;;15.30;;
76729;SDS011;65653;53.106;18.046;2023-11-19T02:42:59;40.10;;;16.20;;
76729;SDS011;65653;53.106;18.046;2023-11-19T02:45:25;49.90;;;17.60;;
76729;SDS011;65653;53.106;18.046;2023-11-19T02:47:52;46.80;;;16.30;;
76729;SDS011;65653;53.106;18.046;2023-11-19T02:50:19;35.70;;;13.30;;
76729;SDS011;65653;53.106;18.046;2023-11-19T02:52:51;37.20;;;13.30;;
76729;SDS011;65653;53.106;18.046;2023-11-19T02:55:19;34.30;;;14.20;;
76729;SDS011;65653;53.106;18.046;2023-11-19T02:57:45;35.30;;;15.20;;
76729;SDS011;65653;53.106;18.046;2023-11-19T03:00:15;42.50;;;16.70;;
76729;SDS011;65653;53.106;18.046;2023-11-19T03:02:41;35.00;;;13.70;;
76729;SDS011;65653;53.106;18.046;2023-11-19T03:05:12;42.20;;;15.50;;
76729;SDS011;65653;53.106;18.046;2023-11-19T03:07:41;42.20;;;14.50;;
76729;SDS011;65653;53.106;18.046;2023-11-19T03:10:10;34.30;;;12.30;;
76729;SDS011;65653;53.106;18.046;2023-11-19T03:12:40;40.20;;;16.10;;
76729;SDS011;65653;53.106;18.046;2023-11-19T03:15:06;33.40;;;13.20;;
76729;SDS011;65653;53.106;18.046;2023-11-19T03:17:38;34.80;;;15.10;;
76729;SDS011;65653;53.106;18.046;2023-11-19T03:20:06;43.90;;;15.30;;
76729;SDS011;65653;53.106;18.046;2023-11-19T03:22:36;39.90;;;14.20;;
76729;SDS011;65653;53.106;18.046;2023-11-19T03:25:02;40.50;;;15.10;;
76729;SDS011;65653;53.106;18.046;2023-11-19T03:27:29;33.30;;;14.00;;
76729;SDS011;65653;53.106;18.046;2023-11-19T03:29:55;39.30;;;16.20;;
76729;SDS011;65653;53.106;18.046;2023-11-19T03:32:21;32.20;;;13.00;;
76729;SDS011;65653;53.106;18.046;2023-11-19T03:34:47;35.20;;;13.80;;
76729;SDS011;65653;53.106;18.046;2023-11-19T03:37:13;41.30;;;16.00;;
76729;SDS011;65653;53.106;18.046;2023-11-19T03:39:42;34.70;;;14.00;;
76729;SDS011;65653;53.106;18.046;2023-11-19T03:42:08;44.80;;;17.20;;
76729;SDS011;65653;53.106;18.046;2023-11-19T03:44:34;38.60;;;14.10;;
76729;SDS011;65653;53.106;18.046;2023-11-19T03:47:00;37.60;;;15.00;;
76729;SDS011;65653;53.106;18.046;2023-11-19T03:49:25;36.00;;;13.10;;
76729;SDS011;65653;53.106;18.046;2023-11-19T03:51:51;33.10;;;13.30;;
76729;SDS011;65653;53.106;18.046;2023-11-19T03:54:17;35.30;;;14.70;;
76729;SDS011;65653;53.106;18.046;2023-11-19T03:56:43;31.50;;;12.80;;
76729;SDS011;65653;53.106;18.046;2023-11-19T03:59:09;29.60;;;13.20;;
76729;SDS011;65653;53.106;18.046;2023-11-19T04:01:35;36.20;;;14.40;;
76729;SDS011;65653;53.106;18.046;2023-11-19T04:04:02;44.20;;;17.10;;
76729;SDS011;65653;53.106;18.046;2023-11-19T04:06:28;37.80;;;15.30;;
76729;SDS011;65653;53.106;18.046;2023-11-19T04:08:54;34.00;;;11.70;;
76729;SDS011;65653;53.106;18.046;2023-11-19T04:11:21;31.90;;;13.00;;
76729;SDS011;65653;53.106;18.046;2023-11-19T04:13:47;24.80;;;10.10;;
76729;SDS011;65653;53.106;18.046;2023-11-19T04:16:12;32.90;;;12.30;;
76729;SDS011;65653;53.106;18.046;2023-11-19T04:18:40;28.40;;;11.40;;
76729;SDS011;65653;53.106;18.046;2023-11-19T04:21:07;25.20;;;10.10;;
76729;SDS011;65653;53.106;18.046;2023-11-19T04:23:33;25.90;;;9.90;;
76729;SDS011;65653;53.106;18.046;2023-11-19T04:26:03;24.20;;;11.00;;
76729;SDS011;65653;53.106;18.046;2023-11-19T04:28:30;27.30;;;10.40;;
76729;SDS011;65653;53.106;18.046;2023-11-19T04:30:56;31.50;;;13.90;;
76729;SDS011;65653;53.106;18.046;2023-11-19T04:33:22;37.60;;;14.60;;
76729;SDS011;65653;53.106;18.046;2023-11-19T04:35:48;26.30;;;11.80;;
76729;SDS011;65653;53.106;18.046;2023-11-19T04:38:14;33.80;;;13.80;;
76729;SDS011;65653;53.106;18.046;2023-11-19T04:40:40;32.30;;;12.80;;
76729;SDS011;65653;53.106;18.046;2023-11-19T04:43:07;26.00;;;11.20;;
76729;SDS011;65653;53.106;18.046;2023-11-19T04:45:33;23.30;;;10.40;;
76729;SDS011;65653;53.106;18.046;2023-11-19T04:47:59;15.60;;;7.70;;
76729;SDS011;65653;53.106;18.046;2023-11-19T04:50:25;22.10;;;10.50;;
76729;SDS011;65653;53.106;18.046;2023-11-19T04:52:52;16.50;;;7.70;;
76729;SDS011;65653;53.106;18.046;2023-11-19T04:55:19;26.80;;;11.50;;
76729;SDS011;65653;53.106;18.046;2023-11-19T04:57:45;29.00;;;11.80;;
76729;SDS011;65653;53.106;18.046;2023-11-19T05:00:11;23.10;;;9.60;;
76729;SDS011;65653;53.106;18.046;2023-11-19T05:02:37;30.80;;;12.20;;
76729;SDS011;65653;53.106;18.046;2023-11-19T05:05:04;27.70;;;11.70;;
76729;SDS011;65653;53.106;18.046;2023-11-19T05:07:31;24.10;;;11.10;;
76729;SDS011;65653;53.106;18.046;2023-11-19T05:09:57;22.10;;;9.70;;
76729;SDS011;65653;53.106;18.046;2023-11-19T05:12:23;25.00;;;11.50;;
76729;SDS011;65653;53.106;18.046;2023-11-19T05:14:48;15.60;;;6.20;;
76729;SDS011;65653;53.106;18.046;2023-11-19T05:17:17;28.80;;;11.00;;
76729;SDS011;65653;53.106;18.046;2023-11-19T05:19:46;28.20;;;10.60;;
76729;SDS011;65653;53.106;18.046;2023-11-19T05:22:13;17.40;;;8.80;;
76729;SDS011;65653;53.106;18.046;2023-11-19T05:24:39;30.70;;;12.70;;
76729;SDS011;65653;53.106;18.046;2023-11-19T05:27:06;22.20;;;9.50;;
76729;SDS011;65653;53.106;18.046;2023-11-19T05:29:33;32.90;;;13.10;;
76729;SDS011;65653;53.106;18.046;2023-11-19T05:32:00;24.90;;;10.40;;
76729;SDS011;65653;53.106;18.046;2023-11-19T05:34:27;27.00;;;10.60;;
76729;SDS011;65653;53.106;18.046;2023-11-19T05:36:55;29.00;;;12.40;;
76729;SDS011;65653;53.106;18.046;2023-11-19T05:39:21;42.10;;;16.20;;
76729;SDS011;65653;53.106;18.046;2023-11-19T05:41:47;23.10;;;10.70;;
76729;SDS011;65653;53.106;18.046;2023-11-19T05:44:12;32.20;;;12.60;;
76729;SDS011;65653;53.106;18.046;2023-11-19T05:46:38;31.40;;;12.90;;
76729;SDS011;65653;53.106;18.046;2023-11-19T05:49:11;26.90;;;12.90;;
76729;SDS011;65653;53.106;18.046;2023-11-19T05:51:37;25.60;;;9.90;;
76729;SDS011;65653;53.106;18.046;2023-11-19T05:54:05;23.00;;;9.80;;
76729;SDS011;65653;53.106;18.046;2023-11-19T05:56:33;25.30;;;11.40;;
76729;SDS011;65653;53.106;18.046;2023-11-19T05:58:59;23.50;;;10.20;;
76729;SDS011;65653;53.106;18.046;2023-11-19T06:01:35;30.60;;;12.10;;
76729;SDS011;65653;53.106;18.046;2023-11-19T06:04:02;24.00;;;8.90;;
76729;SDS011;65653;53.106;18.046;2023-11-19T06:06:28;20.50;;;8.70;;
76729;SDS011;65653;53.106;18.046;2023-11-19T06:08:54;18.20;;;7.60;;
76729;SDS011;65653;53.106;18.046;2023-11-19T06:11:20;23.30;;;9.80;;
76729;SDS011;65653;53.106;18.046;2023-11-19T06:13:46;21.20;;;9.10;;
76729;SDS011;65653;53.106;18.046;2023-11-19T06:16:16;15.80;;;7.90;;
76729;SDS011;65653;53.106;18.046;2023-11-19T06:18:42;18.20;;;8.50;;
76729;SDS011;65653;53.106;18.046;2023-11-19T06:21:09;17.40;;;8.50;;
76729;SDS011;65653;53.106;18.046;2023-11-19T06:23:36;17.40;;;6.90;;
76729;SDS011;65653;53.106;18.046;2023-11-19T06:26:03;10.20;;;6.30;;
76729;SDS011;65653;53.106;18.046;2023-11-19T06:28:31;20.00;;;8.30;;
76729;SDS011;65653;53.106;18.046;2023-11-19T06:30:57;21.30;;;8.60;;
76729;SDS011;65653;53.106;18.046;2023-11-19T06:33:23;23.20;;;8.30;;
76729;SDS011;65653;53.106;18.046;2023-11-19T06:35:50;18.50;;;7.40;;
76729;SDS011;65653;53.106;18.046;2023-11-19T06:38:16;23.10;;;9.60;;
76729;SDS011;65653;53.106;18.046;2023-11-19T06:40:42;16.70;;;7.80;;
76729;SDS011;65653;53.106;18.046;2023-11-19T06:43:08;16.90;;;7.90;;
76729;SDS011;65653;53.106;18.046;2023-11-19T06:45:34;15.60;;;7.30;;
76729;SDS011;65653;53.106;18.046;2023-11-19T06:48:03;23.40;;;9.30;;
76729;SDS011;65653;53.106;18.046;2023-11-19T06:50:30;10.60;;;5.40;;
76729;SDS011;65653;53.106;18.046;2023-11-19T06:52:56;16.10;;;7.40;;
76729;SDS011;65653;53.106;18.046;2023-11-19T06:55:22;13.50;;;5.90;;
76729;SDS011;65653;53.106;18.046;2023-11-19T06:57:48;14.80;;;6.30;;
76729;SDS011;65653;53.106;18.046;2023-11-19T07:00:14;12.60;;;6.30;;
76729;SDS011;65653;53.106;18.046;2023-11-19T07:02:40;13.50;;;7.30;;
76729;SDS011;65653;53.106;18.046;2023-11-19T07:05:05;10.50;;;5.40;;
76729;SDS011;65653;53.106;18.046;2023-11-19T07:07:32;12.80;;;5.60;;
76729;SDS011;65653;53.106;18.046;2023-11-19T07:10:01;15.30;;;7.70;;
76729;SDS011;65653;53.106;18.046;2023-11-19T07:12:31;12.60;;;6.50;;
76729;SDS011;65653;53.106;18.046;2023-11-19T07:14:57;12.60;;;5.70;;
76729;SDS011;65653;53.106;18.046;2023-11-19T07:17:23;14.60;;;6.70;;
76729;SDS011;65653;53.106;18.046;2023-11-19T07:19:49;9.40;;;5.00;;
76729;SDS011;65653;53.106;18.046;2023-11-19T07:22:15;4.90;;;2.80;;
76729;SDS011;65653;53.106;18.046;2023-11-19T07:24:41;12.60;;;6.10;;
76729;SDS011;65653;53.106;18.046;2023-11-19T07:27:07;13.90;;;7.10;;
76729;SDS011;65653;53.106;18.046;2023-11-19T07:29:37;10.60;;;5.80;;
76729;SDS011;65653;53.106;18.046;2023-11-19T07:32:02;9.50;;;4.60;;
76729;SDS011;65653;53.106;18.046;2023-11-19T07:34:29;7.30;;;3.90;;
76729;SDS011;65653;53.106;18.046;2023-11-19T07:36:54;13.90;;;6.70;;
76729;SDS011;65653;53.106;18.046;2023-11-19T07:39:24;10.00;;;5.20;;
76729;SDS011;65653;53.106;18.046;2023-11-19T07:41:50;8.70;;;4.70;;
76729;SDS011;65653;53.106;18.046;2023-11-19T07:44:16;13.20;;;5.70;;
76729;SDS011;65653;53.106;18.046;2023-11-19T07:46:42;15.30;;;6.90;;
76729;SDS011;65653;53.106;18.046;2023-11-19T07:49:07;11.30;;;5.10;;
76729;SDS011;65653;53.106;18.046;2023-11-19T07:51:35;8.60;;;4.40;;
76729;SDS011;65653;53.106;18.046;2023-11-19T07:54:02;15.50;;;6.10;;
76729;SDS011;65653;53.106;18.046;2023-11-19T07:56:28;13.60;;;6.30;;
76729;SDS011;65653;53.106;18.046;2023-11-19T07:58:54;15.10;;;7.50;;
76729;SDS011;65653;53.106;18.046;2023-11-19T08:01:20;13.00;;;5.60;;
76729;SDS011;65653;53.106;18.046;2023-11-19T08:03:46;10.90;;;4.90;;
76729;SDS011;65653;53.106;18.046;2023-11-19T08:06:11;12.00;;;6.10;;
76729;SDS011;65653;53.106;18.046;2023-11-19T08:08:37;13.70;;;6.30;;
76729;SDS011;65653;53.106;18.046;2023-11-19T08:11:04;15.10;;;6.70;;
76729;SDS011;65653;53.106;18.046;2023-11-19T08:13:30;13.30;;;6.90;;
76729;SDS011;65653;53.106;18.046;2023-11-19T08:15:57;12.90;;;6.00;;
76729;SDS011;65653;53.106;18.046;2023-11-19T08:18:24;10.90;;;5.50;;
76729;SDS011;65653;53.106;18.046;2023-11-19T08:20:49;14.40;;;7.10;;
76729;SDS011;65653;53.106;18.046;2023-11-19T08:23:19;12.60;;;6.20;;
76729;SDS011;65653;53.106;18.046;2023-11-19T08:25:46;8.00;;;4.30;;
76729;SDS011;65653;53.106;18.046;2023-11-19T08:28:12;13.20;;;6.20;;
76729;SDS011;65653;53.106;18.046;2023-11-19T08:30:38;12.30;;;6.00;;
76729;SDS011;65653;53.106;18.046;2023-11-19T08:33:04;19.20;;;8.50;;
76729;SDS011;65653;53.106;18.046;2023-11-19T08:35:31;17.60;;;8.40;;
76729;SDS011;65653;53.106;18.046;2023-11-19T08:37:57;16.10;;;7.10;;
76729;SDS011;65653;53.106;18.046;2023-11-19T08:40:24;14.90;;;6.70;;
76729;SDS011;65653;53.106;18.046;2023-11-19T08:42:53;11.70;;;5.90;;
76729;SDS011;65653;53.106;18.046;2023-11-19T08:45:19;14.70;;;6.40;;
76729;SDS011;65653;53.106;18.046;2023-11-19T08:47:45;11.30;;;5.70;;
76729;SDS011;65653;53.106;18.046;2023-11-19T08:50:11;10.90;;;5.30;;
76729;SDS011;65653;53.106;18.046;2023-11-19T08:52:37;13.70;;;6.40;;
76729;SDS011;65653;53.106;18.046;2023-11-19T08:55:03;13.10;;;6.20;;
76729;SDS011;65653;53.106;18.046;2023-11-19T08:57:31;16.00;;;7.80;;
76729;SDS011;65653;53.106;18.046;2023-11-19T08:59:58;16.30;;;7.10;;
76729;SDS011;65653;53.106;18.046;2023-11-19T09:02:25;17.20;;;8.10;;
76729;SDS011;65653;53.106;18.046;2023-11-19T09:04:51;16.80;;;7.50;;
76729;SDS011;65653;53.106;18.046;2023-11-19T09:07:17;13.20;;;5.80;;
76729;SDS011;65653;53.106;18.046;2023-11-19T09:09:42;9.70;;;4.50;;
76729;SDS011;65653;53.106;18.046;2023-11-19T09:12:08;10.90;;;5.20;;
76729;SDS011;65653;53.106;18.046;2023-11-19T09:14:34;16.90;;;8.20;;
76729;SDS011;65653;53.106;18.046;2023-11-19T09:17:00;12.00;;;5.50;;
76729;SDS011;65653;53.106;18.046;2023-11-19T09:19:26;15.90;;;8.20;;
76729;SDS011;65653;53.106;18.046;2023-11-19T09:21:52;15.90;;;6.80;;
76729;SDS011;65653;53.106;18.046;2023-11-19T09:24:18;15.00;;;7.30;;
76729;SDS011;65653;53.106;18.046;2023-11-19T09:26:44;17.60;;;7.90;;
76729;SDS011;65653;53.106;18.046;2023-11-19T09:29:10;23.20;;;9.60;;
76729;SDS011;65653;53.106;18.046;2023-11-19T09:31:39;17.20;;;8.20;;
76729;SDS011;65653;53.106;18.046;2023-11-19T09:34:06;10.40;;;5.80;;
76729;SDS011;65653;53.106;18.046;2023-11-19T09:36:31;17.60;;;8.90;;
76729;SDS011;65653;53.106;18.046;2023-11-19T09:38:57;16.40;;;8.20;;
76729;SDS011;65653;53.106;18.046;2023-11-19T09:41:25;21.50;;;9.20;;
76729;SDS011;65653;53.106;18.046;2023-11-19T09:43:53;20.50;;;8.70;;
76729;SDS011;65653;53.106;18.046;2023-11-19T09:46:19;21.70;;;10.00;;
76729;SDS011;65653;53.106;18.046;2023-11-19T09:48:46;19.80;;;9.10;;
76729;SDS011;65653;53.106;18.046;2023-11-19T09:51:14;15.60;;;8.20;;
76729;SDS011;65653;53.106;18.046;2023-11-19T09:53:40;19.40;;;9.00;;
76729;SDS011;65653;53.106;18.046;2023-11-19T09:56:06;18.20;;;8.70;;
76729;SDS011;65653;53.106;18.046;2023-11-19T09:58:35;16.20;;;8.60;;
76729;SDS011;65653;53.106;18.046;2023-11-19T10:01:01;19.00;;;8.80;;
76729;SDS011;65653;53.106;18.046;2023-11-19T10:03:38;15.80;;;7.20;;
76729;SDS011;65653;53.106;18.046;2023-11-19T10:06:06;18.30;;;8.90;;
76729;SDS011;65653;53.106;18.046;2023-11-19T10:08:33;23.30;;;10.70;;
76729;SDS011;65653;53.106;18.046;2023-11-19T10:10:59;17.10;;;8.60;;
76729;SDS011;65653;53.106;18.046;2023-11-19T10:13:29;16.30;;;8.10;;
76729;SDS011;65653;53.106;18.046;2023-11-19T10:15:57;25.50;;;11.60;;
76729;SDS011;65653;53.106;18.046;2023-11-19T10:18:24;16.10;;;7.30;;
76729;SDS011;65653;53.106;18.046;2023-11-19T10:20:51;16.80;;;8.00;;
76729;SDS011;65653;53.106;18.046;2023-11-19T10:23:18;17.80;;;7.70;;
76729;SDS011;65653;53.106;18.046;2023-11-19T10:25:44;13.70;;;6.90;;
76729;SDS011;65653;53.106;18.046;2023-11-19T10:28:09;25.00;;;11.10;;
76729;SDS011;65653;53.106;18.046;2023-11-19T10:30:35;19.70;;;9.00;;
76729;SDS011;65653;53.106;18.046;2023-11-19T10:33:08;21.80;;;10.60;;
76729;SDS011;65653;53.106;18.046;2023-11-19T10:35:51;18.90;;;9.10;;
76729;SDS011;65653;53.106;18.046;2023-11-19T10:38:19;20.10;;;10.00;;
76729;SDS011;65653;53.106;18.046;2023-11-19T10:40:45;16.80;;;7.50;;
76729;SDS011;65653;53.106;18.046;2023-11-19T10:43:11;17.30;;;9.20;;
76729;SDS011;65653;53.106;18.046;2023-11-19T10:45:38;14.70;;;6.10;;
76729;SDS011;65653;53.106;18.046;2023-11-19T10:48:05;13.20;;;6.60;;
76729;SDS011;65653;53.106;18.046;2023-11-19T10:50:36;22.40;;;9.80;;
76729;SDS011;65653;53.106;18.046;2023-11-19T10:53:03;20.60;;;10.00;;
76729;SDS011;65653;53.106;18.046;2023-11-19T10:55:31;12.90;;;6.60;;
76729;SDS011;65653;53.106;18.046;2023-11-19T10:58:01;23.60;;;9.30;;
76729;SDS011;65653;53.106;18.046;2023-11-19T11:00:29;22.60;;;9.50;;
76729;SDS011;65653;53.106;18.046;2023-11-19T11:03:05;22.00;;;9.80;;
76729;SDS011;65653;53.106;18.046;2023-11-19T11:05:37;21.70;;;8.80;;
76729;SDS011;65653;53.106;18.046;2023-11-19T11:08:06;20.70;;;9.40;;
76729;SDS011;65653;53.106;18.046;2023-11-19T11:10:32;17.20;;;8.30;;
76729;SDS011;65653;53.106;18.046;2023-11-19T11:13:05;22.80;;;9.50;;
76729;SDS011;65653;53.106;18.046;2023-11-19T11:15:31;25.70;;;10.80;;
76729;SDS011;65653;53.106;18.046;2023-11-19T11:18:00;24.90;;;10.50;;
76729;SDS011;65653;53.106;18.046;2023-11-19T11:20:29;20.90;;;9.30;;
76729;SDS011;65653;53.106;18.046;2023-11-19T11:31:35;20.60;;;9.40;;
76729;SDS011;65653;53.106;18.046;2023-11-19T11:39:34;23.10;;;9.90;;
76729;SDS011;65653;53.106;18.046;2023-11-19T11:45:04;15.20;;;6.80;;
76729;SDS011;65653;53.106;18.046;2023-11-19T11:57:57;21.30;;;9.30;;
76729;SDS011;65653;53.106;18.046;2023-11-19T12:00:38;26.70;;;12.30;;
76729;SDS011;65653;53.106;18.046;2023-11-19T12:03:05;19.70;;;8.20;;
76729;SDS011;65653;53.106;18.046;2023-11-19T12:05:33;22.70;;;9.10;;
76729;SDS011;65653;53.106;18.046;2023-11-19T12:08:04;27.30;;;11.80;;
76729;SDS011;65653;53.106;18.046;2023-11-19T12:10:36;31.60;;;12.80;;
76729;SDS011;65653;53.106;18.046;2023-11-19T12:13:23;19.60;;;7.90;;
76729;SDS011;65653;53.106;18.046;2023-11-19T12:18:23;20.30;;;9.00;;
76729;SDS011;65653;53.106;18.046;2023-11-19T12:20:53;17.80;;;7.30;;
76729;SDS011;65653;53.106;18.046;2023-11-19T12:23:22;25.60;;;9.50;;
76729;SDS011;65653;53.106;18.046;2023-11-19T12:25:52;14.50;;;6.60;;
76729;SDS011;65653;53.106;18.046;2023-11-19T12:28:22;23.10;;;10.90;;
76729;SDS011;65653;53.106;18.046;2023-11-19T12:30:49;23.20;;;9.60;;
76729;SDS011;65653;53.106;18.046;2023-11-19T12:33:16;21.50;;;8.90;;
76729;SDS011;65653;53.106;18.046;2023-11-19T12:35:43;18.50;;;7.90;;
76729;SDS011;65653;53.106;18.046;2023-11-19T12:38:29;22.40;;;10.00;;
76729;SDS011;65653;53.106;18.046;2023-11-19T12:41:05;19.50;;;10.30;;
76729;SDS011;65653;53.106;18.046;2023-11-19T12:43:34;19.60;;;8.90;;
76729;SDS011;65653;53.106;18.046;2023-11-19T12:46:01;20.00;;;8.20;;
76729;SDS011;65653;53.106;18.046;2023-11-19T12:48:27;25.10;;;9.60;;
76729;SDS011;65653;53.106;18.046;2023-11-19T12:50:55;19.70;;;8.70;;
76729;SDS011;65653;53.106;18.046;2023-11-19T12:53:24;17.10;;;6.70;;
76729;SDS011;65653;53.106;18.046;2023-11-19T12:55:52;16.00;;;8.00;;
76729;SDS011;65653;53.106;18.046;2023-11-19T13:01:05;13.70;;;7.30;;
76729;SDS011;65653;53.106;18.046;2023-11-19T13:03:33;14.20;;;6.50;;
76729;SDS011;65653;53.106;18.046;2023-11-19T13:06:05;17.00;;;6.50;;
76729;SDS011;65653;53.106;18.046;2023-11-19T13:08:43;20.20;;;7.50;;
76729;SDS011;65653;53.106;18.046;2023-11-19T13:11:12;26.60;;;9.40;;
76729;SDS011;65653;53.106;18.046;2023-11-19T13:13:54;12.70;;;6.20;;
76729;SDS011;65653;53.106;18.046;2023-11-19T13:18:48;15.80;;;7.00;;
76729;SDS011;65653;53.106;18.046;2023-11-19T13:21:13;17.10;;;7.30;;
76729;SDS011;65653;53.106;18.046;2023-11-19T13:23:39;16.00;;;7.50;;
76729;SDS011;65653;53.106;18.046;2023-11-19T13:26:06;19.60;;;7.50;;
76729;SDS011;65653;53.106;18.046;2023-11-19T13:28:33;20.40;;;7.90;;
76729;SDS011;65653;53.106;18.046;2023-11-19T13:30:59;9.90;;;5.10;;
76729;SDS011;65653;53.106;18.046;2023-11-19T13:33:25;20.80;;;8.60;;
76729;SDS011;65653;53.106;18.046;2023-11-19T13:35:52;28.00;;;10.80;;
76729;SDS011;65653;53.106;18.046;2023-11-19T13:38:18;19.50;;;8.70;;
76729;SDS011;65653;53.106;18.046;2023-11-19T13:40:44;27.10;;;12.90;;
76729;SDS011;65653;53.106;18.046;2023-11-19T13:43:10;23.70;;;10.20;;
76729;SDS011;65653;53.106;18.046;2023-11-19T13:45:37;23.30;;;9.40;;
76729;SDS011;65653;53.106;18.046;2023-11-19T13:48:03;21.80;;;9.20;;
76729;SDS011;65653;53.106;18.046;2023-11-19T13:50:29;16.70;;;7.30;;
76729;SDS011;65653;53.106;18.046;2023-11-19T13:52:55;9.00;;;5.10;;
76729;SDS011;65653;53.106;18.046;2023-11-19T13:55:21;10.90;;;4.20;;
76729;SDS011;65653;53.106;18.046;2023-11-19T13:57:48;21.90;;;8.80;;
76729;SDS011;65653;53.106;18.046;2023-11-19T14:00:14;22.90;;;10.80;;
76729;SDS011;65653;53.106;18.046;2023-11-19T14:02:45;18.00;;;8.30;;
76729;SDS011;65653;53.106;18.046;2023-11-19T14:05:13;17.20;;;7.40;;
76729;SDS011;65653;53.106;18.046;2023-11-19T14:07:41;15.70;;;6.10;;
76729;SDS011;65653;53.106;18.046;2023-11-19T14:10:07;13.20;;;6.50;;
76729;SDS011;65653;53.106;18.046;2023-11-19T14:12:37;14.60;;;7.60;;
76729;SDS011;65653;53.106;18.046;2023-11-19T14:15:04;21.70;;;8.70;;
76729;SDS011;65653;53.106;18.046;2023-11-19T14:17:35;14.70;;;6.00;;
76729;SDS011;65653;53.106;18.046;2023-11-19T14:20:02;14.30;;;6.50;;
76729;SDS011;65653;53.106;18.046;2023-11-19T14:22:48;25.60;;;8.10;;
76729;SDS011;65653;53.106;18.046;2023-11-19T14:25:15;13.90;;;6.60;;
76729;SDS011;65653;53.106;18.046;2023-11-19T14:27:42;10.80;;;4.80;;
76729;SDS011;65653;53.106;18.046;2023-11-19T14:30:10;16.00;;;6.70;;
76729;SDS011;65653;53.106;18.046;2023-11-19T14:32:41;16.50;;;7.40;;
76729;SDS011;65653;53.106;18.046;2023-11-19T14:35:11;16.60;;;6.90;;
76729;SDS011;65653;53.106;18.046;2023-11-19T14:37:37;19.40;;;7.40;;
76729;SDS011;65653;53.106;18.046;2023-11-19T14:40:04;16.40;;;7.30;;
76729;SDS011;65653;53.106;18.046;2023-11-19T14:42:31;15.60;;;6.10;;
76729;SDS011;65653;53.106;18.046;2023-11-19T14:44:57;19.80;;;6.80;;
76729;SDS011;65653;53.106;18.046;2023-11-19T14:47:26;15.00;;;6.30;;
76729;SDS011;65653;53.106;18.046;2023-11-19T14:49:53;17.10;;;6.90;;
76729;SDS011;65653;53.106;18.046;2023-11-19T14:52:18;13.80;;;6.00;;
76729;SDS011;65653;53.106;18.046;2023-11-19T14:54:44;16.00;;;6.80;;
76729;SDS011;65653;53.106;18.046;2023-11-19T14:57:10;16.50;;;7.20;;